createdAt,value
2022-10-15T00:01:19.747Z,31.17
2022-10-15T00:03:46.262Z,31.08
2022-10-15T00:06:14.671Z,31.50
2022-10-15T00:08:41.342Z,30.60
2022-10-15T00:11:12.683Z,32.08
2022-10-15T00:13:40.054Z,31.00
2022-10-15T00:16:11.470Z,31.02
2022-10-15T00:18:37.810Z,31.63
2022-10-15T00:21:08.110Z,31.63
2022-10-15T00:23:34.583Z,30.70
2022-10-15T00:26:11.611Z,31.30
2022-10-15T00:28:38.185Z,30.10
2022-10-15T00:31:05.881Z,30.80
2022-10-15T00:33:33.243Z,31.90
2022-10-15T00:36:03.740Z,30.98
2022-10-15T00:38:30.072Z,31.20
2022-10-15T00:40:57.164Z,32.30
2022-10-15T00:43:36.663Z,32.65
2022-10-15T00:46:03.397Z,34.35
2022-10-15T00:48:30.352Z,33.63
2022-10-15T00:50:56.815Z,33.38
2022-10-15T00:53:23.266Z,32.90
2022-10-15T00:55:51.030Z,34.55
2022-10-15T00:58:22.000Z,34.63
2022-10-15T01:00:48.453Z,33.67
2022-10-15T01:03:15.038Z,33.70
2022-10-15T01:05:43.924Z,34.53
2022-10-15T01:08:10.773Z,35.60
2022-10-15T01:10:44.925Z,36.97
2022-10-15T01:13:11.939Z,36.28
2022-10-15T01:15:55.379Z,35.25
2022-10-15T01:20:51.237Z,35.97
2022-10-15T01:23:25.867Z,37.38
2022-10-15T01:26:14.388Z,36.80
2022-10-15T01:28:52.456Z,36.85
2022-10-15T01:31:27.654Z,38.13
2022-10-15T01:34:06.706Z,38.42
2022-10-15T01:36:43.334Z,36.83
2022-10-15T01:39:21.525Z,37.40
2022-10-15T01:41:52.050Z,38.15
2022-10-15T01:44:33.177Z,39.05
2022-10-15T01:47:14.124Z,39.17
2022-10-15T01:49:42.252Z,39.30
2022-10-15T01:52:10.468Z,41.17
2022-10-15T01:54:37.389Z,40.05
2022-10-15T01:57:04.546Z,40.17
2022-10-15T01:59:31.789Z,40.60
2022-10-15T02:01:58.519Z,40.95
2022-10-15T02:04:27.057Z,42.15
2022-10-15T02:07:01.124Z,43.08
2022-10-15T02:09:33.531Z,40.60
2022-10-15T02:12:26.164Z,41.28
2022-10-15T02:14:52.750Z,42.08
2022-10-15T02:17:23.383Z,40.92
2022-10-15T02:19:52.473Z,44.88
2022-10-15T02:22:25.227Z,42.90
2022-10-15T02:24:55.949Z,43.90
2022-10-15T02:27:24.152Z,43.92
2022-10-15T02:29:52.659Z,43.72
2022-10-15T02:32:20.472Z,43.97
2022-10-15T02:34:49.069Z,42.72
2022-10-15T02:37:17.281Z,41.78
2022-10-15T02:39:45.579Z,43.30
2022-10-15T02:42:12.190Z,42.03
2022-10-15T02:44:38.547Z,44.47
2022-10-15T02:47:04.893Z,43.22
2022-10-15T02:49:32.101Z,43.30
2022-10-15T02:51:59.115Z,43.20
2022-10-15T02:54:25.496Z,44.97
2022-10-15T02:56:51.886Z,42.30
2022-10-15T02:59:20.314Z,42.28
2022-10-15T03:01:46.895Z,42.10
2022-10-15T03:04:14.719Z,44.22
2022-10-15T03:06:41.182Z,42.72
2022-10-15T03:09:07.516Z,42.40
2022-10-15T03:11:33.845Z,43.88
2022-10-15T03:14:01.851Z,46.05
2022-10-15T03:16:30.384Z,43.50
2022-10-15T03:18:57.023Z,45.30
2022-10-15T03:21:23.375Z,44.45
2022-10-15T03:23:49.979Z,44.15
2022-10-15T03:26:21.151Z,43.63
2022-10-15T03:28:48.721Z,43.25
2022-10-15T03:31:27.709Z,44.03
2022-10-15T03:33:55.951Z,45.55
2022-10-15T03:36:24.898Z,43.90
2022-10-15T03:38:51.594Z,43.58
2022-10-15T03:41:18.204Z,41.63
2022-10-15T03:43:46.560Z,44.28
2022-10-15T03:46:13.035Z,44.97
2022-10-15T03:48:42.824Z,45.03
2022-10-15T03:51:11.892Z,44.70
2022-10-15T03:53:40.487Z,45.05
2022-10-15T03:56:07.042Z,43.40
2022-10-15T03:58:36.922Z,46.30
2022-10-15T04:01:12.726Z,45.70
2022-10-15T04:03:39.820Z,44.72
2022-10-15T04:06:06.443Z,46.17
2022-10-15T04:08:33.791Z,48.47
2022-10-15T04:11:05.905Z,44.78
2022-10-15T04:13:32.390Z,47.15
2022-10-15T04:15:58.870Z,46.03
2022-10-15T04:18:25.218Z,46.20
2022-10-15T04:20:58.275Z,46.00
2022-10-15T04:23:24.640Z,43.78
2022-10-15T04:26:09.722Z,44.88
2022-10-15T04:28:36.092Z,44.72
2022-10-15T04:31:03.175Z,45.88
2022-10-15T04:33:30.199Z,45.47
2022-10-15T04:35:59.635Z,44.22
2022-10-15T04:38:42.085Z,46.72
2022-10-15T04:41:09.718Z,45.28
2022-10-15T04:44:02.571Z,43.85
2022-10-15T04:46:31.067Z,44.30
2022-10-15T04:49:01.838Z,43.78
2022-10-15T04:51:28.329Z,42.47
2022-10-15T04:54:11.862Z,46.35
2022-10-15T04:56:53.394Z,43.75
2022-10-15T04:59:20.012Z,43.83
2022-10-15T05:02:06.368Z,44.13
2022-10-15T05:04:33.524Z,45.28
2022-10-15T05:07:00.108Z,47.47
2022-10-15T05:09:26.467Z,44.95
2022-10-15T05:11:52.871Z,44.10
2022-10-15T05:14:19.653Z,43.50
2022-10-15T05:17:01.783Z,43.72
2022-10-15T05:19:28.171Z,44.08
2022-10-15T05:21:54.542Z,43.10
2022-10-15T05:24:24.403Z,47.22
2022-10-15T05:26:58.784Z,43.38
2022-10-15T05:29:30.052Z,44.05
2022-10-15T05:31:56.494Z,42.40
2022-10-15T05:34:28.499Z,44.80
2022-10-15T05:36:59.605Z,46.50
2022-10-15T05:39:26.116Z,49.28
2022-10-15T05:41:54.393Z,50.17
2022-10-15T05:44:29.191Z,49.92
2022-10-15T05:46:55.491Z,49.08
2022-10-15T05:49:23.291Z,52.95
2022-10-15T05:51:57.147Z,53.28
2022-10-15T05:54:40.621Z,51.83
2022-10-15T05:57:06.968Z,53.20
2022-10-15T05:59:33.230Z,54.13
2022-10-15T06:01:59.586Z,53.97
2022-10-15T06:04:29.517Z,53.60
2022-10-15T06:06:58.444Z,52.05
2022-10-15T06:09:25.578Z,50.85
2022-10-15T06:11:51.890Z,51.25
2022-10-15T06:14:19.470Z,52.25
2022-10-15T06:16:50.471Z,51.28
2022-10-15T06:19:16.929Z,49.85
2022-10-15T06:21:43.644Z,50.78
2022-10-15T06:24:10.322Z,52.88
2022-10-15T06:26:36.683Z,51.00
2022-10-15T06:29:03.062Z,52.38
2022-10-15T06:31:29.656Z,51.70
2022-10-15T06:33:56.051Z,50.33
2022-10-15T06:36:24.190Z,50.10
2022-10-15T06:38:50.486Z,48.83
2022-10-15T06:41:17.148Z,49.22
2022-10-15T06:43:45.887Z,46.17
2022-10-15T06:46:12.715Z,48.03
2022-10-15T06:48:38.996Z,47.28
2022-10-15T06:51:05.565Z,47.45
2022-10-15T06:53:32.431Z,46.55
2022-10-15T06:55:59.559Z,45.08
2022-10-15T06:58:26.155Z,45.10
2022-10-15T07:00:52.601Z,43.30
2022-10-15T07:03:19.126Z,43.30
2022-10-15T07:05:45.408Z,45.53
2022-10-15T07:08:16.798Z,45.63
2022-10-15T07:10:45.751Z,44.25
2022-10-15T07:13:12.125Z,44.10
2022-10-15T07:15:38.462Z,44.95
2022-10-15T07:18:04.869Z,45.80
2022-10-15T07:20:31.433Z,44.85
2022-10-15T07:22:59.689Z,42.63
2022-10-15T07:25:29.230Z,42.50
2022-10-15T07:27:56.413Z,42.35
2022-10-15T07:30:23.590Z,43.03
2022-10-15T07:32:51.150Z,43.45
2022-10-15T07:35:17.563Z,40.20
2022-10-15T07:37:44.044Z,37.75
2022-10-15T07:40:10.662Z,37.92
2022-10-15T07:42:38.403Z,34.55
2022-10-15T07:45:05.063Z,34.60
2022-10-15T07:47:31.832Z,30.05
2022-10-15T07:49:58.201Z,30.20
2022-10-15T07:52:24.888Z,29.48
2022-10-15T07:54:51.616Z,31.63
2022-10-15T07:57:18.893Z,28.85
2022-10-15T07:59:47.188Z,28.58
2022-10-15T08:02:17.618Z,28.55
2022-10-15T08:04:44.115Z,27.77
2022-10-15T08:07:10.700Z,27.08
2022-10-15T08:09:37.263Z,27.08
2022-10-15T08:12:04.311Z,24.65
2022-10-15T08:14:31.743Z,26.65
2022-10-15T08:16:58.432Z,25.08
2022-10-15T08:19:24.831Z,24.55
2022-10-15T08:21:51.175Z,24.73
2022-10-15T08:24:18.465Z,25.35
2022-10-15T08:26:44.762Z,24.20
2022-10-15T08:29:11.164Z,23.65
2022-10-15T08:31:37.975Z,23.42
2022-10-15T08:34:04.308Z,22.15
2022-10-15T08:36:30.775Z,22.30
2022-10-15T08:38:57.587Z,21.77
2022-10-15T08:41:41.346Z,22.90
2022-10-15T08:44:13.792Z,20.98
2022-10-15T08:46:46.131Z,20.75
2022-10-15T08:49:46.148Z,19.95
2022-10-15T08:52:18.312Z,20.55
2022-10-15T08:54:44.693Z,19.45
2022-10-15T08:57:30.735Z,19.10
2022-10-15T08:59:57.185Z,18.98
2022-10-15T09:02:26.719Z,18.25
2022-10-15T09:05:03.802Z,17.52
2022-10-15T09:07:37.277Z,16.05
2022-10-15T09:10:14.686Z,16.45
2022-10-15T09:12:55.898Z,18.20
2022-10-15T09:15:26.917Z,17.25
2022-10-15T09:17:54.732Z,16.40
2022-10-15T09:20:41.025Z,14.73
2022-10-15T09:23:18.903Z,15.02
2022-10-15T09:25:49.507Z,14.02
2022-10-15T09:28:17.287Z,14.80
2022-10-15T09:30:46.626Z,14.63
2022-10-15T09:33:22.530Z,14.55
2022-10-15T09:35:54.619Z,14.05
2022-10-15T09:38:28.467Z,14.45
2022-10-15T09:41:07.387Z,13.88
2022-10-15T09:43:36.370Z,14.13
2022-10-15T09:46:03.887Z,13.77
2022-10-15T09:48:50.435Z,13.18
2022-10-15T09:51:35.254Z,13.50
2022-10-15T09:54:01.559Z,14.90
2022-10-15T09:56:36.703Z,14.75
2022-10-15T09:59:05.892Z,14.30
2022-10-15T10:01:35.204Z,14.48
2022-10-15T10:04:11.802Z,15.05
2022-10-15T10:06:46.188Z,16.60
2022-10-15T10:09:16.440Z,16.80
2022-10-15T10:11:48.931Z,16.33
2022-10-15T10:14:23.439Z,16.85
2022-10-15T10:17:04.415Z,17.35
2022-10-15T10:19:30.720Z,17.83
2022-10-15T10:22:06.460Z,18.25
2022-10-15T10:24:34.360Z,18.45
2022-10-15T10:27:01.865Z,19.23
2022-10-15T10:29:33.897Z,19.42
2022-10-15T10:32:09.457Z,19.25
2022-10-15T10:34:35.968Z,18.30
2022-10-15T10:37:02.884Z,17.95
2022-10-15T10:39:30.908Z,18.95
2022-10-15T10:41:57.278Z,15.80
2022-10-15T10:44:37.734Z,16.33
2022-10-15T10:47:15.471Z,17.63
2022-10-15T10:49:46.458Z,15.45
2022-10-15T10:54:39.119Z,14.77
2022-10-15T10:57:08.300Z,13.68
2022-10-15T10:59:36.963Z,14.05
2022-10-15T11:02:06.216Z,13.13
2022-10-15T11:04:33.868Z,12.00
2022-10-15T11:07:17.267Z,10.35
2022-10-15T11:10:09.710Z,9.88
2022-10-15T11:12:39.075Z,8.13
2022-10-15T11:15:11.458Z,9.18
2022-10-15T11:17:56.480Z,8.85
2022-10-15T11:20:51.261Z,8.18
2022-10-15T11:23:27.474Z,6.80
2022-10-15T11:26:03.060Z,7.53
2022-10-15T11:28:38.402Z,7.60
2022-10-15T11:31:25.205Z,7.18
2022-10-15T11:34:00.951Z,7.28
2022-10-15T11:36:54.819Z,6.63
2022-10-15T11:39:21.279Z,7.18
2022-10-15T11:42:07.815Z,6.15
2022-10-15T11:44:53.049Z,6.95
2022-10-15T11:47:38.168Z,6.85
2022-10-15T11:50:23.469Z,6.70
2022-10-15T11:53:03.194Z,6.50
2022-10-15T11:55:36.471Z,7.03
2022-10-15T11:58:07.558Z,6.75
2022-10-15T12:00:35.963Z,7.38
2022-10-15T12:03:16.672Z,7.70
2022-10-15T12:05:50.595Z,6.85
2022-10-15T12:08:17.657Z,7.05
2022-10-15T12:11:16.211Z,6.88
2022-10-15T12:13:48.885Z,6.78
2022-10-15T12:16:28.208Z,6.40
2022-10-15T12:19:24.327Z,7.22
2022-10-15T12:21:55.866Z,7.10
2022-10-15T12:24:38.403Z,7.05
2022-10-15T12:27:19.905Z,7.22
2022-10-15T12:29:46.195Z,7.05
2022-10-15T12:32:22.817Z,7.80
2022-10-15T12:34:54.082Z,7.68
2022-10-15T12:37:22.654Z,7.38
2022-10-15T12:39:57.623Z,7.80
2022-10-15T12:42:24.138Z,7.90
2022-10-15T12:44:50.861Z,8.45
2022-10-15T12:47:37.158Z,8.48
2022-10-15T12:50:05.640Z,8.60
2022-10-15T12:52:52.072Z,8.68
2022-10-15T12:55:32.699Z,8.02
2022-10-15T12:58:00.494Z,8.00
2022-10-15T13:00:26.826Z,8.38
2022-10-15T13:02:53.986Z,8.43
2022-10-15T13:05:25.294Z,8.60
2022-10-15T13:07:52.351Z,7.57
2022-10-15T13:10:29.045Z,7.20
2022-10-15T13:12:57.345Z,6.95
2022-10-15T13:15:25.027Z,7.70
2022-10-15T13:17:52.316Z,7.32
2022-10-15T13:20:29.671Z,7.47
2022-10-15T13:23:18.762Z,7.50
2022-10-15T13:26:13.930Z,7.13
2022-10-15T13:28:44.299Z,7.28
2022-10-15T13:31:30.502Z,7.90
2022-10-15T13:34:17.595Z,7.15
2022-10-15T13:36:45.590Z,6.97
2022-10-15T13:39:30.872Z,7.13
2022-10-15T13:42:09.230Z,6.80
2022-10-15T13:44:35.736Z,6.72
2022-10-15T13:47:02.276Z,6.82
2022-10-15T13:49:28.987Z,6.45
2022-10-15T13:51:55.673Z,5.93
2022-10-15T13:54:28.058Z,5.95
2022-10-15T13:56:57.624Z,5.50
2022-10-15T13:59:24.978Z,5.32
2022-10-15T14:02:00.676Z,4.47
2022-10-15T14:04:31.107Z,4.30
2022-10-15T14:07:02.717Z,3.33
2022-10-15T14:09:30.420Z,3.40
2022-10-15T14:12:00.650Z,2.90
2022-10-15T14:14:37.102Z,2.80
2022-10-15T14:17:05.402Z,2.97
2022-10-15T14:19:32.198Z,2.92
2022-10-15T14:22:00.003Z,2.70
2022-10-15T14:24:37.238Z,2.80
2022-10-15T14:27:08.165Z,2.92
2022-10-15T14:29:45.605Z,2.60
2022-10-15T14:32:26.711Z,2.80
2022-10-15T14:34:57.322Z,2.83
2022-10-15T14:37:40.150Z,1.80
2022-10-15T14:40:09.805Z,1.70
2022-10-15T14:42:40.362Z,1.13
2022-10-15T14:45:14.304Z,1.10
2022-10-15T14:47:40.897Z,0.70
2022-10-15T14:50:10.208Z,0.80
2022-10-15T14:52:37.379Z,0.60
2022-10-15T14:55:27.075Z,0.80
2022-10-15T14:57:53.576Z,0.80
2022-10-15T15:00:31.909Z,0.82
2022-10-15T15:02:59.042Z,0.80
2022-10-15T15:05:26.339Z,0.90
2022-10-15T15:07:53.186Z,0.80
2022-10-15T15:10:20.039Z,0.75
2022-10-15T15:12:48.727Z,0.70
2022-10-15T15:15:16.178Z,0.85
2022-10-15T15:17:43.255Z,0.85
2022-10-15T15:20:09.771Z,0.70
2022-10-15T15:22:36.675Z,0.90
2022-10-15T15:25:35.744Z,0.70
2022-10-15T15:28:02.301Z,0.90
2022-10-15T15:30:29.845Z,0.80
2022-10-15T15:32:56.410Z,0.80
2022-10-15T15:35:22.723Z,0.95
2022-10-15T15:37:50.390Z,0.80
2022-10-15T15:40:16.772Z,0.80
2022-10-15T15:42:43.880Z,0.75
2022-10-15T15:45:15.147Z,0.70
2022-10-15T15:47:41.484Z,1.02
2022-10-15T15:50:08.085Z,0.95
2022-10-15T15:52:36.697Z,1.10
2022-10-15T15:55:05.573Z,0.95
2022-10-15T15:57:31.954Z,0.98
2022-10-15T15:59:58.333Z,1.13
2022-10-15T16:02:24.921Z,1.13
2022-10-15T16:04:51.386Z,0.80
2022-10-15T16:07:19.529Z,1.08
2022-10-15T16:09:46.293Z,1.27
2022-10-15T16:12:12.786Z,1.50
2022-10-15T16:14:39.343Z,1.05
2022-10-15T16:17:05.716Z,1.38
2022-10-15T16:19:32.014Z,1.50
2022-10-15T16:21:58.406Z,1.65
2022-10-15T16:24:24.794Z,1.70
2022-10-15T16:26:51.069Z,1.50
2022-10-15T16:29:17.502Z,1.38
2022-10-15T16:31:43.850Z,1.48
2022-10-15T16:34:10.304Z,1.50
2022-10-15T16:36:38.140Z,1.42
2022-10-15T16:39:04.511Z,1.60
2022-10-15T16:41:30.999Z,1.65
2022-10-15T16:43:57.476Z,2.00
2022-10-15T16:46:23.764Z,1.80
2022-10-15T16:48:54.068Z,1.50
2022-10-15T16:51:21.531Z,1.73
2022-10-15T16:53:48.586Z,1.30
2022-10-15T16:56:16.336Z,1.70
2022-10-15T16:58:42.709Z,1.48
2022-10-15T17:01:11.704Z,1.70
2022-10-15T17:03:38.572Z,1.40
2022-10-15T17:06:06.671Z,1.90
2022-10-15T17:08:41.090Z,2.50
2022-10-15T17:11:11.467Z,2.08
2022-10-15T17:13:37.976Z,1.80
2022-10-15T17:16:12.736Z,1.35
2022-10-15T17:18:40.048Z,2.17
2022-10-15T17:21:08.057Z,1.88
2022-10-15T17:23:35.685Z,1.92
2022-10-15T17:26:06.474Z,2.08
2022-10-15T17:28:32.870Z,1.67
2022-10-15T17:31:06.733Z,1.70
2022-10-15T17:33:35.118Z,1.95
2022-10-15T17:36:02.269Z,2.03
2022-10-15T17:38:30.548Z,1.63
2022-10-15T17:40:57.201Z,1.80
2022-10-15T17:43:23.618Z,2.65
2022-10-15T17:45:49.919Z,1.80
2022-10-15T17:48:16.488Z,1.80
2022-10-15T17:50:45.328Z,2.28
2022-10-15T17:53:13.327Z,1.88
2022-10-15T17:55:40.303Z,1.70
2022-10-15T17:58:07.365Z,2.47
2022-10-15T18:00:34.939Z,2.13
2022-10-15T18:03:01.294Z,2.00
2022-10-15T18:05:27.583Z,2.60
2022-10-15T18:07:53.885Z,2.25
2022-10-15T18:10:20.253Z,2.30
2022-10-15T18:12:46.603Z,2.25
2022-10-15T18:15:13.951Z,2.70
2022-10-15T18:17:40.367Z,2.38
2022-10-15T18:20:07.081Z,2.38
2022-10-15T18:22:33.372Z,2.47
2022-10-15T18:24:59.771Z,1.95
2022-10-15T18:27:26.509Z,1.90
2022-10-15T18:29:53.223Z,2.55
2022-10-15T18:32:19.566Z,2.38
2022-10-15T18:34:46.963Z,2.17
2022-10-15T18:37:13.381Z,2.17
2022-10-15T18:39:39.698Z,2.58
2022-10-15T18:42:07.016Z,2.22
2022-10-15T18:44:34.180Z,2.58
2022-10-15T18:47:00.584Z,2.20
2022-10-15T18:49:26.936Z,1.98
2022-10-15T18:51:54.125Z,3.20
2022-10-15T18:54:21.309Z,2.45
2022-10-15T18:56:48.012Z,2.70
2022-10-15T18:59:18.546Z,2.22
2022-10-15T19:01:44.930Z,2.63
2022-10-15T19:04:12.645Z,2.53
2022-10-15T19:06:40.443Z,2.95
2022-10-15T19:09:07.897Z,2.13
2022-10-15T19:11:34.684Z,3.25
2022-10-15T19:14:05.223Z,2.78
2022-10-15T19:16:31.578Z,2.38
2022-10-15T19:21:28.736Z,2.28
2022-10-15T19:23:55.166Z,2.53
2022-10-15T19:26:21.679Z,3.03
2022-10-15T19:28:48.356Z,1.98
2022-10-15T19:31:21.522Z,2.22
2022-10-15T19:33:47.838Z,2.38
2022-10-15T19:36:21.619Z,2.13
2022-10-15T19:38:48.000Z,1.88
2022-10-15T19:41:17.252Z,2.05
2022-10-15T19:43:43.722Z,2.05
2022-10-15T19:46:10.196Z,2.08
2022-10-15T19:48:37.999Z,2.10
2022-10-15T19:51:05.316Z,1.90
2022-10-15T19:53:32.516Z,2.10
2022-10-15T19:56:02.719Z,1.95
2022-10-15T19:58:29.689Z,1.73
2022-10-15T20:00:56.045Z,1.70
2022-10-15T20:03:23.811Z,1.80
2022-10-15T20:05:50.401Z,1.88
2022-10-15T20:08:17.283Z,1.50
2022-10-15T20:10:46.823Z,1.60
2022-10-15T20:13:14.967Z,1.38
2022-10-15T20:15:45.888Z,1.80
2022-10-15T20:20:41.992Z,2.45
2022-10-15T20:23:08.748Z,1.65
2022-10-15T20:25:38.129Z,2.00
2022-10-15T20:28:04.643Z,1.95
2022-10-15T20:30:31.389Z,1.60
2022-10-15T20:32:57.705Z,1.90
2022-10-15T20:35:24.047Z,2.03
2022-10-15T20:37:50.448Z,2.25
2022-10-15T20:40:16.817Z,2.80
2022-10-15T20:42:43.140Z,3.20
2022-10-15T20:45:11.222Z,2.97
2022-10-15T20:47:39.651Z,3.58
2022-10-15T20:50:07.045Z,2.72
2022-10-15T20:52:33.782Z,2.05
2022-10-15T20:55:00.125Z,2.10
2022-10-15T20:57:26.412Z,2.00
2022-10-15T20:59:52.872Z,2.28
2022-10-15T21:02:19.249Z,2.35
2022-10-15T21:04:48.142Z,2.10
2022-10-15T21:07:14.501Z,2.00
2022-10-15T21:09:40.833Z,1.90
2022-10-15T21:12:08.848Z,1.90
2022-10-15T21:14:35.145Z,1.55
2022-10-15T21:17:01.533Z,1.83
2022-10-15T21:19:27.851Z,1.52
2022-10-15T21:21:54.395Z,1.90
2022-10-15T21:24:20.802Z,2.67
2022-10-15T21:26:47.171Z,1.83
2022-10-15T21:29:15.448Z,1.75
2022-10-15T21:31:42.392Z,1.50
2022-10-15T21:34:09.004Z,1.73
2022-10-15T21:36:35.297Z,1.70
2022-10-15T21:39:02.663Z,1.90
2022-10-15T21:41:30.593Z,2.03
2022-10-15T21:43:57.500Z,1.80
2022-10-15T21:46:23.918Z,1.85
2022-10-15T21:48:51.343Z,2.13
2022-10-15T21:51:19.124Z,2.15
2022-10-15T21:53:45.858Z,1.92
2022-10-15T21:56:12.637Z,1.77
2022-10-15T21:58:39.756Z,1.92
2022-10-15T22:01:10.153Z,1.85
2022-10-15T22:03:36.730Z,1.92
2022-10-15T22:06:03.368Z,1.98
2022-10-15T22:08:29.814Z,1.67
2022-10-15T22:11:06.509Z,1.98
2022-10-15T22:13:32.817Z,2.20
2022-10-15T22:16:00.081Z,1.92
2022-10-15T22:18:26.354Z,2.17
2022-10-15T22:20:52.619Z,2.38
2022-10-15T22:23:18.974Z,2.08
2022-10-15T22:25:46.232Z,1.75
2022-10-15T22:28:12.575Z,2.40
2022-10-15T22:30:38.914Z,2.25
2022-10-15T22:33:05.267Z,1.83
2022-10-15T22:35:34.700Z,2.10
2022-10-15T22:38:00.977Z,1.85
2022-10-15T22:40:27.263Z,1.80
2022-10-15T22:42:53.534Z,2.10
2022-10-15T22:45:19.960Z,1.98
2022-10-15T22:47:46.282Z,1.95
2022-10-15T22:50:12.539Z,2.25
2022-10-15T22:52:38.849Z,1.98
2022-10-15T22:55:05.459Z,1.77
2022-10-15T22:57:31.827Z,1.80
2022-10-15T22:59:59.409Z,2.08
2022-10-15T23:02:26.129Z,1.80
2022-10-15T23:04:52.646Z,2.08
2022-10-15T23:07:19.081Z,1.80
2022-10-15T23:09:45.630Z,1.58
2022-10-15T23:12:12.341Z,1.92
2022-10-15T23:14:38.882Z,1.77
2022-10-15T23:17:05.148Z,2.20
2022-10-15T23:19:32.180Z,1.73
2022-10-15T23:21:59.913Z,1.88
2022-10-15T23:24:26.590Z,2.03
2022-10-15T23:26:53.003Z,2.00
2022-10-15T23:29:20.879Z,1.92
2022-10-15T23:31:47.695Z,1.90
2022-10-15T23:34:15.207Z,1.80
2022-10-15T23:36:41.780Z,1.75
2022-10-15T23:39:08.391Z,2.42
2022-10-15T23:41:34.671Z,2.05
2022-10-15T23:44:00.992Z,2.63
2022-10-15T23:46:27.395Z,2.38
2022-10-15T23:48:53.686Z,2.28
2022-10-15T23:51:25.099Z,1.90
2022-10-15T23:53:53.919Z,2.70
2022-10-15T23:56:20.673Z,2.15
2022-10-15T23:58:47.914Z,1.67
